Time;durP1;ratioP1;P1;durP2;ratioP2;P2;SDS_P1;SDS_P2;PMS_P1;PMS_P2;Temp;Humidity;BMP_temperature;BMP_pressure;BME280_temperature;BME280_humidity;BME280_pressure;Samples;Min_cycle;Max_cycle;Signal;HPM_P1;HPM_P2
2023/09/21 00:01:11;;;;;;;8.97;2.80;;;15.10;99.90;;;;;;5010609;28;20445;-64
2023/09/21 00:03:41;;;;;;;9.80;3.07;;;15.10;99.90;;;;;;5008022;28;20473;-65
2023/09/21 00:06:10;;;;;;;8.80;2.93;;;15.00;99.90;;;;;;5010656;28;20476;-62
2023/09/21 00:08:38;;;;;;;8.90;3.53;;;14.80;99.90;;;;;;5009817;28;20493;-65
2023/09/21 00:11:06;;;;;;;8.70;3.53;;;14.70;99.90;;;;;;5010451;28;20489;-65
2023/09/21 00:13:38;;;;;;;9.30;3.70;;;14.70;99.90;;;;;;5010650;28;20547;-65
2023/09/21 00:16:11;;;;;;;9.03;3.13;;;14.70;99.90;;;;;;5010555;28;20516;-65
2023/09/21 00:18:42;;;;;;;8.23;3.07;;;14.60;99.90;;;;;;5010113;28;21007;-64
2023/09/21 00:21:12;;;;;;;8.43;2.70;;;14.60;99.90;;;;;;5010283;28;20556;-64
2023/09/21 00:23:41;;;;;;;8.20;2.80;;;14.60;99.90;;;;;;5010064;28;20457;-65
2023/09/21 00:26:10;;;;;;;9.03;3.17;;;14.60;99.90;;;;;;5010147;28;20450;-64
2023/09/21 00:28:38;;;;;;;10.70;3.10;;;14.60;99.90;;;;;;5009445;28;20551;-66
2023/09/21 00:31:06;;;;;;;8.27;2.73;;;14.60;99.90;;;;;;5009974;28;20945;-66
2023/09/21 00:33:34;;;;;;;7.80;3.13;;;14.60;99.90;;;;;;5009763;28;21002;-66
2023/09/21 00:36:05;;;;;;;8.00;2.83;;;14.60;99.90;;;;;;5009945;28;20442;-66
2023/09/21 00:38:33;;;;;;;8.03;2.87;;;14.50;99.90;;;;;;5009598;28;20872;-65
2023/09/21 00:41:05;;;;;;;9.13;3.30;;;14.40;99.90;;;;;;5010099;28;20970;-65
2023/09/21 00:43:33;;;;;;;9.33;3.23;;;14.30;99.90;;;;;;5009682;28;20477;-66
2023/09/21 00:46:04;;;;;;;9.20;3.00;;;14.30;99.90;;;;;;5001737;28;20509;-66
2023/09/21 00:48:36;;;;;;;9.00;3.37;;;14.30;99.90;;;;;;5009332;28;20456;-65
2023/09/21 00:51:09;;;;;;;10.50;3.20;;;14.30;99.90;;;;;;5009810;28;20520;-66
2023/09/21 00:53:39;;;;;;;8.77;3.30;;;14.30;99.90;;;;;;5009725;28;20532;-65
2023/09/21 00:56:11;;;;;;;9.00;3.70;;;14.40;99.90;;;;;;5009674;28;20446;-65
2023/09/21 00:58:44;;;;;;;9.47;3.00;;;14.30;99.90;;;;;;5009062;28;20473;-66
2023/09/21 01:01:13;;;;;;;10.10;3.63;;;14.30;99.90;;;;;;5009578;28;20537;-65
2023/09/21 01:03:43;;;;;;;8.93;3.60;;;14.30;99.90;;;;;;5009302;28;20455;-65
2023/09/21 01:06:16;;;;;;;9.93;3.00;;;14.30;99.90;;;;;;5009358;28;20458;-65
2023/09/21 01:08:45;;;;;;;8.30;2.83;;;14.30;99.90;;;;;;5009207;28;20868;-64
2023/09/21 01:11:14;;;;;;;8.70;2.93;;;14.20;99.90;;;;;;5009500;28;20456;-65
2023/09/21 01:13:43;;;;;;;8.20;3.17;;;14.20;99.90;;;;;;5008936;28;20450;-65
2023/09/21 01:16:11;;;;;;;8.40;3.40;;;14.20;99.90;;;;;;5008964;28;20527;-65
2023/09/21 01:18:40;;;;;;;8.70;3.13;;;14.20;99.90;;;;;;5008946;28;20563;-66
2023/09/21 01:21:13;;;;;;;8.80;3.23;;;14.20;99.90;;;;;;5009319;28;20496;-65
2023/09/21 01:23:45;;;;;;;11.40;3.30;;;14.30;99.90;;;;;;5009367;28;20531;-65
2023/09/21 01:26:14;;;;;;;9.90;3.20;;;14.20;99.90;;;;;;5009219;28;20450;-65
2023/09/21 01:28:44;;;;;;;8.30;2.70;;;14.20;99.90;;;;;;5009145;28;20473;-65
2023/09/21 01:31:13;;;;;;;8.00;2.87;;;14.20;99.90;;;;;;5009637;28;20453;-65
2023/09/21 01:33:43;;;;;;;8.10;3.07;;;14.20;99.90;;;;;;5009159;28;20489;-66
2023/09/21 01:36:12;;;;;;;8.10;2.53;;;14.30;99.90;;;;;;5009271;28;20528;-65
2023/09/21 01:38:43;;;;;;;8.10;2.60;;;14.40;99.90;;;;;;5008783;28;20480;-66
2023/09/21 01:41:14;;;;;;;9.50;3.20;;;14.60;99.90;;;;;;5009503;28;20477;-66
2023/09/21 01:43:42;;;;;;;8.10;3.13;;;14.60;99.90;;;;;;5008901;28;20441;-65
2023/09/21 01:46:10;;;;;;;8.37;2.90;;;14.50;99.90;;;;;;5009401;28;20448;-65
2023/09/21 01:48:38;;;;;;;8.30;3.40;;;14.40;99.90;;;;;;5008578;28;20471;-66
2023/09/21 01:51:07;;;;;;;8.47;3.53;;;14.40;99.90;;;;;;5009413;28;20455;-66
2023/09/21 01:53:35;;;;;;;7.77;2.90;;;14.40;99.90;;;;;;5009392;28;20487;-65
2023/09/21 01:56:04;;;;;;;8.50;2.80;;;14.30;99.90;;;;;;5001392;28;20449;-66
2023/09/21 01:58:33;;;;;;;8.97;3.10;;;14.30;99.90;;;;;;5008781;28;21268;-66
2023/09/21 02:01:03;;;;;;;8.53;2.57;;;14.30;99.90;;;;;;5008685;28;20483;-65
2023/09/21 02:03:32;;;;;;;8.10;2.53;;;14.30;99.90;;;;;;5008375;28;20449;-66
2023/09/21 02:06:02;;;;;;;9.67;2.50;;;14.40;99.90;;;;;;5009047;28;20513;-66
2023/09/21 02:08:31;;;;;;;11.00;2.93;;;14.50;99.90;;;;;;5008403;28;20479;-66
2023/09/21 02:11:00;;;;;;;9.27;2.73;;;14.60;99.90;;;;;;5009164;28;20446;-65
2023/09/21 02:13:28;;;;;;;7.77;2.97;;;14.70;99.90;;;;;;5008545;28;20922;-66
2023/09/21 02:15:57;;;;;;;10.10;2.90;;;14.70;99.90;;;;;;5009150;28;20869;-65
2023/09/21 02:18:25;;;;;;;8.83;2.90;;;14.80;99.90;;;;;;5008012;28;20475;-66
2023/09/21 02:20:55;;;;;;;9.37;3.37;;;14.80;99.90;;;;;;5008965;28;20538;-65
2023/09/21 02:23:24;;;;;;;10.80;2.80;;;14.70;99.90;;;;;;5008915;28;20808;-65
2023/09/21 02:25:53;;;;;;;7.47;2.70;;;14.60;99.90;;;;;;5008832;28;20442;-66
2023/09/21 02:28:22;;;;;;;8.03;2.80;;;14.50;99.90;;;;;;5010389;28;20552;-66
2023/09/21 02:30:51;;;;;;;8.07;2.33;;;14.50;99.90;;;;;;5012450;28;21086;-66
2023/09/21 02:33:22;;;;;;;10.30;3.50;;;14.40;99.90;;;;;;5012584;28;20482;-66
2023/09/21 02:35:51;;;;;;;10.40;3.00;;;14.40;99.90;;;;;;5015792;28;20442;-66
2023/09/21 02:38:20;;;;;;;10.00;2.53;;;14.40;99.90;;;;;;5011737;28;21021;-66
2023/09/21 02:40:48;;;;;;;8.80;2.60;;;14.60;99.90;;;;;;5011928;28;20459;-66
2023/09/21 02:43:17;;;;;;;8.40;2.67;;;14.60;99.90;;;;;;5012094;28;21087;-66
2023/09/21 02:45:45;;;;;;;8.60;3.10;;;14.80;99.90;;;;;;5011998;28;21092;-66
2023/09/21 02:48:15;;;;;;;7.83;2.70;;;14.80;99.90;;;;;;5011396;28;20488;-66
2023/09/21 02:50:48;;;;;;;8.50;3.20;;;14.90;99.90;;;;;;5011896;28;20575;-65
2023/09/21 02:53:17;;;;;;;8.60;3.00;;;14.90;99.90;;;;;;5011922;28;20541;-66
2023/09/21 02:55:45;;;;;;;9.90;2.30;;;14.90;99.90;;;;;;5011451;28;20532;-66
2023/09/21 02:58:13;;;;;;;9.47;2.70;;;14.80;99.90;;;;;;5011206;28;20476;-65
2023/09/21 03:00:44;;;;;;;7.83;2.87;;;14.80;99.90;;;;;;5011636;28;20453;-64
2023/09/21 03:03:14;;;;;;;7.30;2.33;;;14.90;99.90;;;;;;5011505;28;20457;-65
2023/09/21 03:05:47;;;;;;;7.70;2.33;;;14.80;99.90;;;;;;5011429;28;20456;-65
2023/09/21 03:08:16;;;;;;;7.20;2.30;;;14.80;99.90;;;;;;5010826;28;20523;-65
2023/09/21 03:10:45;;;;;;;7.60;2.43;;;14.80;99.90;;;;;;5011499;28;20524;-65
2023/09/21 03:13:18;;;;;;;8.47;3.20;;;14.80;99.90;;;;;;5011249;28;20985;-65
2023/09/21 03:15:47;;;;;;;7.67;2.87;;;14.90;99.90;;;;;;5011377;28;20532;-65
2023/09/21 03:18:16;;;;;;;8.30;2.70;;;15.00;99.90;;;;;;5010470;28;20531;-64
2023/09/21 03:20:46;;;;;;;7.50;2.20;;;15.00;99.90;;;;;;5011235;28;20507;-63
2023/09/21 03:23:15;;;;;;;9.07;2.73;;;15.10;99.90;;;;;;5011355;28;20446;-65
2023/09/21 03:25:45;;;;;;;8.97;2.43;;;15.20;99.90;;;;;;5011144;28;20461;-65
2023/09/21 03:28:15;;;;;;;8.20;2.80;;;15.20;99.90;;;;;;5010366;28;20473;-65
2023/09/21 03:30:44;;;;;;;8.13;2.30;;;15.20;99.90;;;;;;5010933;28;20976;-65
2023/09/21 03:33:12;;;;;;;7.70;2.60;;;15.20;99.90;;;;;;5011051;28;20652;-66
2023/09/21 03:35:40;;;;;;;8.10;2.80;;;15.20;99.90;;;;;;5010919;28;20452;-66
2023/09/21 03:38:12;;;;;;;8.40;3.43;;;15.20;99.90;;;;;;5010002;28;20492;-65
2023/09/21 03:40:41;;;;;;;11.30;2.80;;;15.10;99.90;;;;;;5011170;28;20507;-66
2023/09/21 03:43:10;;;;;;;8.77;3.10;;;15.10;99.90;;;;;;5011128;28;20524;-66
2023/09/21 03:45:39;;;;;;;8.37;2.60;;;15.00;99.90;;;;;;5010987;28;20457;-66
2023/09/21 03:48:08;;;;;;;8.27;2.73;;;14.90;99.90;;;;;;5002514;28;20823;-66
2023/09/21 03:50:37;;;;;;;8.20;2.67;;;15.00;99.90;;;;;;5010979;28;20445;-66
2023/09/21 03:53:07;;;;;;;8.27;2.73;;;15.10;99.90;;;;;;5010038;28;20477;-66
2023/09/21 03:55:38;;;;;;;7.77;2.40;;;15.30;99.90;;;;;;5009276;28;20446;-66
2023/09/21 03:58:07;;;;;;;7.93;2.50;;;15.20;99.90;;;;;;5009835;28;20453;-66
2023/09/21 04:00:37;;;;;;;10.97;2.70;;;15.30;99.90;;;;;;5010797;28;20871;-66
2023/09/21 04:03:09;;;;;;;8.03;2.43;;;15.30;99.90;;;;;;5010541;28;21193;-66
2023/09/21 04:05:40;;;;;;;8.20;3.00;;;15.30;99.90;;;;;;5010693;28;20512;-66
2023/09/21 04:08:09;;;;;;;8.10;2.97;;;15.20;99.90;;;;;;5009699;28;20503;-66
2023/09/21 04:10:39;;;;;;;9.17;3.30;;;15.40;99.90;;;;;;5010258;28;20444;-62
2023/09/21 04:13:07;;;;;;;10.03;3.30;;;15.40;99.90;;;;;;5002354;28;20441;-63
2023/09/21 04:15:35;;;;;;;10.40;3.80;;;15.40;99.90;;;;;;5010386;28;20450;-64
2023/09/21 04:18:04;;;;;;;11.37;3.90;;;15.40;99.90;;;;;;5009637;28;20445;-67
2023/09/21 04:20:34;;;;;;;9.23;3.83;;;15.50;99.90;;;;;;5010414;28;20474;-66
2023/09/21 04:23:04;;;;;;;11.33;3.60;;;15.50;99.90;;;;;;5010114;28;20821;-66
2023/09/21 04:25:32;;;;;;;9.70;3.27;;;15.60;99.90;;;;;;5010366;28;20445;-65
2023/09/21 04:28:03;;;;;;;9.57;4.10;;;15.70;99.90;;;;;;5009659;28;20529;-64
2023/09/21 04:30:34;;;;;;;9.23;3.90;;;15.70;99.90;;;;;;5010520;28;20536;-66
2023/09/21 04:33:02;;;;;;;10.13;3.80;;;15.70;99.90;;;;;;5010608;28;20450;-66
2023/09/21 04:35:30;;;;;;;11.03;3.73;;;15.70;99.90;;;;;;5010020;28;20445;-66
2023/09/21 04:37:58;;;;;;;9.30;3.40;;;15.60;99.90;;;;;;5009075;28;20925;-66
2023/09/21 04:40:27;;;;;;;12.40;3.50;;;15.60;99.90;;;;;;5010205;28;20438;-65
2023/09/21 04:42:56;;;;;;;9.90;3.17;;;15.60;99.90;;;;;;5009964;28;20441;-65
2023/09/21 04:45:26;;;;;;;9.27;2.77;;;15.60;99.90;;;;;;5009890;28;20492;-65
2023/09/21 04:48:00;;;;;;;8.90;3.00;;;15.70;99.90;;;;;;5008388;28;20446;-65
2023/09/21 04:50:29;;;;;;;9.60;3.20;;;15.80;99.90;;;;;;5008614;28;20468;-66
2023/09/21 04:52:57;;;;;;;8.80;3.47;;;15.80;99.90;;;;;;5009618;28;20544;-67
2023/09/21 04:55:25;;;;;;;10.60;4.37;;;15.80;99.90;;;;;;5006360;28;21004;-64
2023/09/21 04:57:53;;;;;;;9.80;3.90;;;16.00;99.90;;;;;;5004063;28;20454;-66
2023/09/21 05:00:21;;;;;;;8.83;3.00;;;16.00;99.90;;;;;;5006104;28;20935;-66
2023/09/21 05:02:51;;;;;;;8.33;3.43;;;16.00;99.90;;;;;;5008377;28;20950;-68
2023/09/21 05:05:19;;;;;;;9.10;3.20;;;16.00;99.90;;;;;;5009371;28;20453;-65
2023/09/21 05:07:47;;;;;;;8.60;3.40;;;16.00;99.90;;;;;;5007083;28;20937;-66
2023/09/21 05:10:15;;;;;;;10.10;3.60;;;16.10;99.90;;;;;;5006545;28;20481;-66
2023/09/21 05:12:43;;;;;;;9.90;3.60;;;16.10;99.90;;;;;;4999450;28;20447;-66
2023/09/21 05:15:14;;;;;;;8.00;2.80;;;16.00;99.90;;;;;;5004223;28;21013;-66
2023/09/21 05:17:43;;;;;;;8.43;3.53;;;15.90;99.90;;;;;;5001798;28;20821;-66
2023/09/21 05:20:14;;;;;;;8.60;3.20;;;16.00;99.90;;;;;;5007284;28;20466;-66
2023/09/21 05:22:42;;;;;;;9.10;2.90;;;15.90;99.90;;;;;;4998359;28;20473;-66
2023/09/21 05:25:11;;;;;;;7.53;2.67;;;15.90;99.90;;;;;;5008112;28;20441;-65
2023/09/21 05:27:41;;;;;;;8.80;3.20;;;15.80;99.90;;;;;;5003436;28;20450;-64
2023/09/21 05:30:09;;;;;;;8.23;3.20;;;15.80;99.90;;;;;;5000168;28;20492;-66
2023/09/21 05:32:39;;;;;;;8.93;3.23;;;15.70;99.90;;;;;;5008302;28;20450;-65
2023/09/21 05:35:10;;;;;;;10.90;3.33;;;15.70;99.90;;;;;;5008247;28;20481;-65
2023/09/21 05:37:41;;;;;;;8.00;2.87;;;15.60;99.90;;;;;;5008110;28;20453;-65
2023/09/21 05:40:11;;;;;;;10.33;3.30;;;15.60;99.90;;;;;;5007878;28;20486;-65
2023/09/21 05:42:39;;;;;;;9.30;4.50;;;15.50;99.90;;;;;;5008386;28;20445;-65
2023/09/21 05:45:08;;;;;;;8.73;3.57;;;15.60;99.90;;;;;;5008213;28;20596;-66
2023/09/21 05:47:37;;;;;;;11.53;4.50;;;15.70;99.90;;;;;;5007419;28;20454;-67
2023/09/21 05:50:07;;;;;;;9.37;3.17;;;15.90;99.90;;;;;;5008362;28;20506;-66
2023/09/21 05:52:35;;;;;;;7.87;2.70;;;15.90;99.90;;;;;;5008400;28;20469;-65
2023/09/21 05:55:06;;;;;;;10.00;3.17;;;16.00;99.90;;;;;;5007622;28;20508;-65
2023/09/21 05:57:34;;;;;;;9.43;3.33;;;16.20;99.90;;;;;;4962058;28;1245821;-65
2023/09/21 06:00:02;;;;;;;8.93;3.07;;;16.30;99.90;;;;;;5008707;28;20227;-66
2023/09/21 06:02:30;;;;;;;8.00;2.90;;;16.40;99.90;;;;;;5011338;28;20508;-66
2023/09/21 06:04:58;;;;;;;8.40;2.90;;;16.50;99.90;;;;;;5012320;28;21035;-65
2023/09/21 06:07:27;;;;;;;8.33;2.60;;;16.50;99.90;;;;;;5011797;28;20503;-65
2023/09/21 06:09:54;;;;;;;10.70;3.27;;;16.60;99.90;;;;;;5008824;28;20470;-68
2023/09/21 06:12:25;;;;;;;7.70;2.83;;;16.70;99.90;;;;;;5010519;28;20469;-64
2023/09/21 06:14:53;;;;;;;8.33;2.67;;;16.80;99.90;;;;;;5012339;28;20858;-65
2023/09/21 06:17:22;;;;;;;10.60;3.03;;;17.00;99.90;;;;;;5012287;28;20461;-64
2023/09/21 06:19:52;;;;;;;10.60;3.37;;;17.10;99.90;;;;;;5012022;28;20473;-64
2023/09/21 06:22:20;;;;;;;10.00;3.23;;;17.00;99.90;;;;;;5012674;28;20995;-66
2023/09/21 06:24:48;;;;;;;8.07;2.63;;;17.00;99.90;;;;;;5009105;28;20477;-67
2023/09/21 06:27:17;;;;;;;9.27;2.93;;;17.10;99.90;;;;;;5009811;28;20454;-67
2023/09/21 06:29:46;;;;;;;8.10;3.20;;;17.10;99.90;;;;;;5011850;28;21002;-67
2023/09/21 06:32:14;;;;;;;11.37;2.90;;;17.20;99.90;;;;;;5011949;28;20446;-66
2023/09/21 06:34:42;;;;;;;9.83;3.10;;;17.20;99.90;;;;;;5011759;28;20560;-67
2023/09/21 06:37:12;;;;;;;11.80;3.30;;;17.30;99.90;;;;;;5005056;28;20985;-66
2023/09/21 06:39:40;;;;;;;9.63;2.87;;;17.30;99.90;;;;;;5009030;28;20497;-66
2023/09/21 06:42:08;;;;;;;8.60;3.13;;;17.40;99.90;;;;;;5008045;28;20507;-66
2023/09/21 06:44:37;;;;;;;8.80;3.13;;;17.40;99.90;;;;;;5007977;28;21013;-66
2023/09/21 06:47:06;;;;;;;17.67;3.07;;;17.30;99.90;;;;;;5006812;28;20922;-67
2023/09/21 06:49:35;;;;;;;11.60;3.80;;;17.20;99.90;;;;;;5007500;28;20537;-64
2023/09/21 06:52:04;;;;;;;10.37;3.00;;;17.20;99.90;;;;;;5007350;28;20505;-66
2023/09/21 06:54:33;;;;;;;13.47;5.10;;;17.20;99.90;;;;;;5008157;28;20495;-67
2023/09/21 06:57:04;;;;;;;10.80;3.50;;;17.40;99.90;;;;;;5008588;28;20446;-65
2023/09/21 06:59:35;;;;;;;9.00;3.20;;;17.50;99.90;;;;;;5008430;28;20549;-67
2023/09/21 07:02:04;;;;;;;12.17;3.40;;;17.60;99.90;;;;;;5008844;28;20508;-66
2023/09/21 07:04:34;;;;;;;10.63;3.50;;;17.60;99.90;;;;;;5008804;28;20450;-66
2023/09/21 07:07:05;;;;;;;10.67;2.67;;;17.90;99.90;;;;;;5008177;28;20437;-65
2023/09/21 07:09:35;;;;;;;8.07;2.97;;;18.20;99.90;;;;;;5008732;28;20485;-66
2023/09/21 07:12:04;;;;;;;9.83;3.50;;;18.30;99.90;;;;;;5009014;28;20521;-65
2023/09/21 07:14:35;;;;;;;9.13;3.10;;;18.40;99.90;;;;;;5008850;28;20533;-66
2023/09/21 07:17:05;;;;;;;9.90;3.77;;;18.50;99.90;;;;;;5008692;28;20820;-65
2023/09/21 07:19:36;;;;;;;8.80;3.30;;;18.50;99.90;;;;;;5008942;28;20472;-66
2023/09/21 07:22:05;;;;;;;11.87;3.60;;;18.70;99.90;;;;;;5009959;28;20444;-65
2023/09/21 07:24:33;;;;;;;8.93;2.57;;;18.80;99.90;;;;;;5007922;28;20488;-66
2023/09/21 07:27:01;;;;;;;8.90;3.37;;;19.00;99.90;;;;;;5008544;28;20449;-65
2023/09/21 07:29:30;;;;;;;7.93;2.80;;;19.20;99.90;;;;;;5007813;28;20473;-66
2023/09/21 07:32:00;;;;;;;8.23;3.30;;;19.30;99.90;;;;;;5008156;28;20489;-66
2023/09/21 07:34:29;;;;;;;9.67;4.03;;;19.60;99.90;;;;;;5008282;28;20452;-65
2023/09/21 07:36:58;;;;;;;8.83;3.50;;;19.80;99.90;;;;;;5008949;28;20532;-66
2023/09/21 07:39:28;;;;;;;11.70;4.00;;;20.00;99.90;;;;;;5007766;28;20567;-66
2023/09/21 07:41:56;;;;;;;10.13;3.33;;;20.20;99.90;;;;;;5009195;28;20478;-66
2023/09/21 07:44:24;;;;;;;9.80;3.27;;;20.50;99.90;;;;;;5007785;28;20461;-65
2023/09/21 07:46:52;;;;;;;10.83;3.83;;;20.80;99.90;;;;;;5007108;28;20488;-66
2023/09/21 07:49:21;;;;;;;12.07;4.87;;;20.90;99.90;;;;;;5007055;28;21205;-66
2023/09/21 07:51:49;;;;;;;8.80;3.00;;;20.90;99.90;;;;;;5008305;28;20446;-66
2023/09/21 07:54:19;;;;;;;10.07;3.07;;;21.10;99.90;;;;;;5009489;28;20453;-64
2023/09/21 07:56:47;;;;;;;11.10;4.43;;;21.20;99.90;;;;;;5008496;28;20513;-64
2023/09/21 07:59:15;;;;;;;10.60;4.10;;;21.50;99.90;;;;;;5008543;28;20468;-64
2023/09/21 08:01:44;;;;;;;10.57;4.50;;;21.60;99.90;;;;;;5008548;28;20431;-64
2023/09/21 08:04:12;;;;;;;10.60;4.10;;;21.90;99.90;;;;;;5006750;28;20731;-64
2023/09/21 08:06:41;;;;;;;10.63;3.73;;;21.90;99.90;;;;;;5007119;28;20442;-64
2023/09/21 08:09:09;;;;;;;10.83;4.23;;;22.00;99.90;;;;;;5007775;28;20890;-63
2023/09/21 08:11:58;;;;;;;11.47;4.67;;;22.30;99.90;;;;;;5006864;28;20967;-64
2023/09/21 08:14:27;;;;;;;7.80;3.10;;;22.40;99.90;;;;;;5007853;28;20454;-64
2023/09/21 08:16:54;;;;;;;12.17;3.70;;;22.40;99.90;;;;;;5007814;28;20481;-64
2023/09/21 08:19:23;;;;;;;9.60;3.30;;;22.30;99.90;;;;;;5007046;28;20520;-63
2023/09/21 08:21:51;;;;;;;13.77;3.60;;;22.20;99.90;;;;;;5010261;28;20794;-66
2023/09/21 08:24:19;;;;;;;8.63;3.40;;;22.20;99.90;;;;;;5006197;28;20446;-67
2023/09/21 08:26:48;;;;;;;9.70;3.03;;;22.40;99.90;;;;;;5007552;28;20497;-66
2023/09/21 08:29:21;;;;;;;8.20;3.13;;;22.80;99.90;;;;;;5008415;28;20488;-67
2023/09/21 08:31:49;;;;;;;9.43;3.37;;;23.00;99.90;;;;;;5007980;28;20438;-65
2023/09/21 08:34:19;;;;;;;10.50;3.30;;;23.20;99.90;;;;;;5007841;28;20987;-65
2023/09/21 08:36:47;;;;;;;9.13;3.10;;;23.50;99.90;;;;;;5007256;28;20473;-66
2023/09/21 08:39:15;;;;;;;9.13;2.97;;;23.60;99.90;;;;;;5006738;28;20481;-66
2023/09/21 08:41:49;;;;;;;11.57;3.77;;;23.90;99.90;;;;;;5008105;28;20542;-66
2023/09/21 08:44:19;;;;;;;8.73;2.80;;;23.90;99.90;;;;;;5006928;28;20442;-67
2023/09/21 08:46:48;;;;;;;11.50;5.90;;;23.80;99.90;;;;;;5007679;28;20525;-67
2023/09/21 08:49:17;;;;;;;12.20;4.40;;;23.40;99.90;;;;;;5007115;28;20482;-68
2023/09/21 08:51:47;;;;;;;7.90;3.17;;;23.20;99.90;;;;;;5007840;28;20482;-66
2023/09/21 08:54:16;;;;;;;9.23;3.53;;;23.20;99.90;;;;;;5008680;28;20449;-67
2023/09/21 08:56:47;;;;;;;10.97;3.47;;;23.20;99.90;;;;;;5005948;28;20551;-66
2023/09/21 08:59:20;;;;;;;9.80;3.47;;;23.30;99.90;;;;;;5007234;28;20519;-65
2023/09/21 09:01:49;;;;;;;11.23;3.40;;;23.60;99.90;;;;;;5006161;28;20434;-67
2023/09/21 09:04:17;;;;;;;8.20;3.03;;;24.10;99.90;;;;;;5008585;28;20442;-65
2023/09/21 09:06:46;;;;;;;9.07;3.00;;;24.80;99.90;;;;;;5007150;28;20458;-66
2023/09/21 09:09:15;;;;;;;10.03;2.73;;;25.40;99.90;;;;;;5006062;28;20481;-66
2023/09/21 09:11:45;;;;;;;8.60;3.30;;;25.60;99.90;;;;;;5007907;28;20481;-66
2023/09/21 09:14:14;;;;;;;9.80;2.60;;;25.80;99.90;;;;;;5007664;28;20434;-65
2023/09/21 09:16:46;;;;;;;8.43;2.90;;;26.20;99.90;;;;;;5005833;28;20834;-67
2023/09/21 09:19:15;;;;;;;10.93;2.97;;;26.40;99.90;;;;;;5008137;28;20456;-65
2023/09/21 09:21:44;;;;;;;7.73;2.10;;;26.80;99.90;;;;;;5000098;28;20441;-66
2023/09/21 09:24:13;;;;;;;8.50;2.37;;;27.00;99.40;;;;;;5005306;28;20513;-66
2023/09/21 09:26:42;;;;;;;8.80;2.80;;;27.20;99.70;;;;;;5008147;28;20508;-66
2023/09/21 09:29:13;;;;;;;8.90;2.33;;;27.40;98.70;;;;;;5005979;28;20520;-66
2023/09/21 09:31:43;;;;;;;8.00;2.30;;;27.70;99.80;;;;;;5006296;28;20437;-65
2023/09/21 09:34:17;;;;;;;8.53;2.50;;;27.80;99.30;;;;;;5006334;28;20477;-66
2023/09/21 09:36:46;;;;;;;9.50;2.57;;;28.00;97.80;;;;;;5008353;28;21004;-66
2023/09/21 09:39:15;;;;;;;8.53;2.20;;;28.30;93.10;;;;;;5010006;28;20462;-66
2023/09/21 09:41:46;;;;;;;7.90;2.47;;;28.50;95.40;;;;;;5010065;28;20438;-66
2023/09/21 09:44:17;;;;;;;8.13;2.23;;;28.70;93.20;;;;;;5009826;28;21022;-65
2023/09/21 09:46:49;;;;;;;8.80;2.70;;;28.70;92.90;;;;;;5011336;28;20530;-66
2023/09/21 09:49:21;;;;;;;7.67;2.33;;;28.90;87.60;;;;;;5010561;28;20453;-63
2023/09/21 09:51:56;;;;;;;11.77;2.80;;;28.80;85.80;;;;;;5010289;28;20430;-62
2023/09/21 09:54:26;;;;;;;7.93;2.37;;;28.90;91.80;;;;;;5009778;28;20448;-63
2023/09/21 09:56:58;;;;;;;10.60;2.70;;;29.20;90.70;;;;;;5010546;28;20563;-65
2023/09/21 09:59:28;;;;;;;8.17;2.47;;;29.40;87.60;;;;;;5010338;28;20458;-66
2023/09/21 10:01:58;;;;;;;6.70;1.87;;;29.40;85.40;;;;;;5012198;28;20452;-66
2023/09/21 10:04:33;;;;;;;7.20;2.20;;;29.20;82.00;;;;;;5011301;28;20556;-65
2023/09/21 10:07:02;;;;;;;9.83;2.50;;;29.20;81.10;;;;;;5010632;28;20444;-64
2023/09/21 10:09:31;;;;;;;7.67;2.23;;;29.40;80.00;;;;;;5012534;28;21012;-67
2023/09/21 10:12:03;;;;;;;8.60;2.20;;;29.70;82.30;;;;;;5012204;28;20481;-66
2023/09/21 10:14:36;;;;;;;7.03;2.13;;;30.10;80.80;;;;;;5011100;28;20465;-64
2023/09/21 10:17:06;;;;;;;8.40;2.20;;;30.60;80.80;;;;;;5010491;28;20481;-66
2023/09/21 10:19:38;;;;;;;7.93;2.53;;;30.80;77.20;;;;;;5011958;28;20504;-65
2023/09/21 10:22:23;;;;;;;8.33;2.87;;;30.60;72.70;;;;;;5011482;28;20949;-66
2023/09/21 10:24:51;;;;;;;9.17;2.70;;;30.20;74.90;;;;;;5009677;28;20437;-65
2023/09/21 10:27:21;;;;;;;7.97;2.13;;;30.30;76.50;;;;;;5009532;28;20533;-65
2023/09/21 10:29:54;;;;;;;8.13;2.60;;;30.20;78.20;;;;;;5012560;28;20465;-65
2023/09/21 10:32:24;;;;;;;8.67;2.57;;;30.10;76.30;;;;;;5012611;28;20621;-64
2023/09/21 10:34:55;;;;;;;8.30;2.47;;;29.70;72.90;;;;;;5012653;28;20442;-65
2023/09/21 10:37:28;;;;;;;7.60;2.67;;;29.60;77.00;;;;;;5009777;28;21185;-66
2023/09/21 10:39:59;;;;;;;7.27;2.17;;;29.50;79.50;;;;;;5012534;28;20512;-66
2023/09/21 10:42:34;;;;;;;8.37;2.47;;;29.60;78.90;;;;;;5012933;28;20822;-66
2023/09/21 10:45:04;;;;;;;8.50;2.00;;;29.80;73.80;;;;;;5012714;28;20886;-65
2023/09/21 10:47:41;;;;;;;8.77;2.20;;;30.20;74.50;;;;;;5011711;28;20462;-65
2023/09/21 10:50:13;;;;;;;7.30;1.80;;;30.50;71.40;;;;;;5012226;28;20478;-65
2023/09/21 10:52:43;;;;;;;9.20;2.43;;;31.00;69.30;;;;;;5012459;28;20508;-65
2023/09/21 10:55:13;;;;;;;6.97;1.90;;;31.10;69.70;;;;;;5012219;28;20933;-66
2023/09/21 10:57:42;;;;;;;7.23;2.40;;;31.30;70.00;;;;;;5011849;28;20895;-65
2023/09/21 11:00:16;;;;;;;7.00;1.90;;;31.30;69.30;;;;;;5012241;28;21015;-65
2023/09/21 11:02:46;;;;;;;8.80;2.10;;;31.40;59.50;;;;;;5012657;28;20496;-64
2023/09/21 11:05:17;;;;;;;7.60;2.17;;;31.00;59.10;;;;;;5012192;28;20453;-66
2023/09/21 11:07:47;;;;;;;7.37;2.10;;;30.60;59.30;;;;;;5011904;28;20492;-65
2023/09/21 11:10:16;;;;;;;7.00;1.83;;;30.70;61.10;;;;;;5011997;28;20462;-65
2023/09/21 11:12:45;;;;;;;7.10;1.87;;;30.50;60.00;;;;;;5012254;28;20446;-66
2023/09/21 11:15:16;;;;;;;7.60;2.40;;;30.50;61.40;;;;;;5011955;28;20452;-66
2023/09/21 11:17:46;;;;;;;7.40;2.13;;;30.60;59.60;;;;;;5006749;28;20477;-67
2023/09/21 11:20:18;;;;;;;9.43;2.00;;;30.90;62.40;;;;;;5007138;28;20466;-65
2023/09/21 11:22:48;;;;;;;7.13;2.10;;;31.30;59.80;;;;;;5008664;28;20949;-66
2023/09/21 11:25:20;;;;;;;9.40;2.10;;;31.80;56.60;;;;;;5004627;28;20461;-65
2023/09/21 11:27:50;;;;;;;7.97;2.20;;;32.70;54.40;;;;;;5007557;28;20438;-65
2023/09/21 11:30:18;;;;;;;6.67;1.63;;;33.40;52.80;;;;;;4977694;28;20476;-65
2023/09/21 11:32:49;;;;;;;8.90;2.33;;;33.30;53.70;;;;;;5010385;28;20517;-66
2023/09/21 11:35:21;;;;;;;7.90;1.63;;;33.10;54.30;;;;;;5007185;28;20438;-64
2023/09/21 11:37:50;;;;;;;9.60;1.93;;;32.50;54.40;;;;;;5005238;28;20477;-65
2023/09/21 11:40:21;;;;;;;7.63;2.07;;;32.00;55.80;;;;;;5007832;28;20466;-67
2023/09/21 11:42:51;;;;;;;7.67;2.33;;;31.30;55.30;;;;;;5008842;28;20448;-66
2023/09/21 11:45:20;;;;;;;9.27;1.97;;;31.00;57.20;;;;;;5008011;28;20942;-65
2023/09/21 11:47:50;;;;;;;7.07;2.07;;;30.90;57.20;;;;;;5009411;28;20474;-66
2023/09/21 11:50:25;;;;;;;8.17;1.90;;;30.80;56.70;;;;;;5009854;28;20552;-66
2023/09/21 11:52:56;;;;;;;7.40;2.13;;;30.80;57.50;;;;;;5009205;28;20449;-65
2023/09/21 11:55:25;;;;;;;7.20;2.10;;;30.70;56.80;;;;;;5007808;28;20437;-66
2023/09/21 11:57:54;;;;;;;7.63;2.20;;;30.60;56.90;;;;;;5005055;28;20474;-65
2023/09/21 12:00:43;;;;;;;7.90;2.00;;;30.70;61.60;;;;;;5006267;28;20485;-66
2023/09/21 12:03:12;;;;;;;8.57;2.57;;;30.90;59.30;;;;;;5007942;28;20465;-66
2023/09/21 12:05:42;;;;;;;9.23;2.43;;;31.10;56.10;;;;;;5006322;28;20453;-67
2023/09/21 12:08:11;;;;;;;7.17;2.33;;;31.10;57.70;;;;;;5007878;28;20851;-63
2023/09/21 12:10:40;;;;;;;8.10;2.20;;;30.60;56.10;;;;;;5009007;28;20973;-65
2023/09/21 12:13:11;;;;;;;8.30;2.13;;;30.10;56.70;;;;;;5007772;28;20444;-65
2023/09/21 12:15:40;;;;;;;8.40;2.40;;;29.80;58.00;;;;;;5006843;28;20537;-64
2023/09/21 12:18:08;;;;;;;7.60;2.80;;;30.10;58.10;;;;;;5009361;28;20477;-66
2023/09/21 12:20:44;;;;;;;6.70;1.97;;;30.30;61.60;;;;;;5008990;28;20450;-66
2023/09/21 12:23:13;;;;;;;7.00;2.20;;;30.50;61.10;;;;;;5007800;28;20460;-65
2023/09/21 12:25:41;;;;;;;8.33;2.30;;;30.70;62.10;;;;;;5007330;28;20442;-66
2023/09/21 12:28:09;;;;;;;7.63;2.17;;;31.00;57.80;;;;;;5007364;28;20834;-66
2023/09/21 12:30:41;;;;;;;7.87;2.00;;;31.30;58.20;;;;;;5007345;28;20903;-66
2023/09/21 12:33:11;;;;;;;7.70;2.17;;;31.50;57.60;;;;;;5007878;28;20470;-66
2023/09/21 12:36:00;;;;;;;7.83;2.07;;;31.70;59.00;;;;;;5007867;28;20508;-66
2023/09/21 12:38:30;;;;;;;7.63;2.03;;;32.10;58.10;;;;;;5006397;28;21059;-66
2023/09/21 12:40:58;;;;;;;7.10;2.10;;;32.70;57.20;;;;;;5005557;28;20461;-66
2023/09/21 12:43:28;;;;;;;6.63;1.73;;;33.60;54.20;;;;;;5009310;28;20489;-65
2023/09/21 12:45:56;;;;;;;7.43;1.97;;;35.00;50.10;;;;;;5010949;28;20446;-64
2023/09/21 12:48:24;;;;;;;11.23;2.83;;;35.90;49.40;;;;;;5010622;28;20458;-65
2023/09/21 12:50:52;;;;;;;9.40;2.47;;;35.90;47.30;;;;;;5005800;28;20548;-66
2023/09/21 12:53:22;;;;;;;7.83;2.50;;;35.00;50.30;;;;;;5007605;28;20469;-65
2023/09/21 12:55:50;;;;;;;8.17;1.93;;;34.20;52.20;;;;;;5008958;28;21131;-65
2023/09/21 12:58:18;;;;;;;9.63;2.00;;;33.60;50.30;;;;;;5005358;28;21009;-66